Huvudsida
METAR-TAF:

METAR-TAF

Flygplatser :

Björneborgs flygplats

Björneborg, Finland

latitud: 61-28N, longitud: 021-48E, höjd: 13 m

Aktuellt väderrapport

Denna rapport gjordes för 33 minuter sedan, klockan 12:50 UTC
Vind 9 kt från syd/sydväst, varierande mellan syd och väst/sydväst
Temperatur 19°C
Fuktighet 78%
Tryck 1010 hPa
Sikt 10 km eller mer

METAR: EFPO 171250Z AUTO 21009KT 180V240 9999 FEW023/// SCT069/// 19/15 Q1010

Tid: 16:23 (13:23 UTC)

Väderprognos

Denna rapport gjordes för 16 timmar och 53 minuter sedan, klockan 20:30 UTC
Prognos gäller från 16 kl. 21 UTC till 16 kl. 23 UTC
Vind 8 kt från syd/sydost
Sikt 10 km eller mer
Inga moln under 1 500 m eller inga cumulonimbus
Sannolikhet 30% :
Temporärt
från 16 kl. 21 UTC till 16 kl. 23 UTC
Få moln på en höjd av 4000 ft, Cumulonimbus.

TAF: EFPO 162030Z 1621/1623 16008KT CAVOK PROB30 TEMPO 1621/1623 FEW040CB

Aktuella väderrapporter och prognoser från 4000 flygplatser (METAR- och TAF-rapporter).

De tillgängliga stationerna syns som gula och röda prickar på kartan.

För musen över prickarna för att se namnen på stationerna.

Klicka sedan för att få väderrapporter och prognoser.

För att ändra kartan: Klicka på de gröna knapparna med ett svart kors på för att zooma in; den gröna knappen med ett streck på för att zooma ut; eller på de gröna pilarna för angränsande kartor.


METAR-TAF: